createdAt,value
2022-11-20T00:01:22.717Z,10.18
2022-11-20T00:03:49.794Z,11.50
2022-11-20T00:06:18.899Z,11.43
2022-11-20T00:08:46.453Z,11.52
2022-11-20T00:11:18.970Z,8.68
2022-11-20T00:13:46.768Z,10.30
2022-11-20T00:16:15.141Z,11.13
2022-11-20T00:18:43.245Z,11.60
2022-11-20T00:21:35.876Z,8.73
2022-11-20T00:24:02.416Z,8.30
2022-11-20T00:26:29.511Z,8.15
2022-11-20T00:28:58.756Z,9.13
2022-11-20T00:31:25.757Z,8.18
2022-11-20T00:33:53.040Z,8.20
2022-11-20T00:36:30.090Z,8.32
2022-11-20T00:38:58.682Z,11.88
2022-11-20T00:41:26.344Z,11.43
2022-11-20T00:43:54.222Z,9.15
2022-11-20T00:46:23.650Z,8.73
2022-11-20T00:48:50.435Z,9.25
2022-11-20T00:51:19.584Z,12.65
2022-11-20T00:53:46.878Z,12.48
2022-11-20T00:56:15.942Z,11.40
2022-11-20T00:58:44.199Z,11.00
2022-11-20T01:01:10.796Z,10.82
2022-11-20T01:03:42.791Z,12.25
2022-11-20T01:06:13.968Z,10.77
2022-11-20T01:08:41.106Z,12.70
2022-11-20T01:11:13.792Z,11.02
2022-11-20T01:13:41.382Z,10.63
2022-11-20T01:16:22.018Z,11.95
2022-11-20T01:18:50.969Z,10.90
2022-11-20T01:21:23.621Z,9.02
2022-11-20T01:23:51.056Z,10.80
2022-11-20T01:26:21.434Z,9.43
2022-11-20T01:28:48.703Z,11.85
2022-11-20T01:31:21.523Z,10.35
2022-11-20T01:33:50.680Z,8.45
2022-11-20T01:36:19.062Z,9.63
2022-11-20T01:38:45.519Z,11.73
2022-11-20T01:41:36.972Z,12.55
2022-11-20T01:44:04.800Z,11.25
2022-11-20T01:46:34.019Z,12.50
2022-11-20T01:49:32.546Z,12.15
2022-11-20T01:52:37.333Z,11.63
2022-11-20T01:55:20.483Z,10.98
2022-11-20T01:57:49.390Z,10.43
2022-11-20T02:00:18.681Z,13.05
2022-11-20T02:02:51.423Z,11.65
2022-11-20T02:05:17.783Z,13.18
2022-11-20T02:07:44.861Z,12.70
2022-11-20T02:10:12.493Z,12.82
2022-11-20T02:12:57.573Z,12.65
2022-11-20T02:15:27.579Z,15.52
2022-11-20T02:17:56.707Z,13.50
2022-11-20T02:20:23.230Z,13.13
2022-11-20T02:23:14.696Z,10.27
2022-11-20T02:25:42.967Z,8.70
2022-11-20T02:28:09.538Z,10.68
2022-11-20T02:30:36.008Z,11.00
2022-11-20T02:33:02.456Z,10.52
2022-11-20T02:35:28.833Z,9.07
2022-11-20T02:37:57.242Z,9.85
2022-11-20T02:40:23.916Z,10.77
2022-11-20T02:42:56.908Z,9.50
2022-11-20T02:45:24.596Z,8.68
2022-11-20T02:47:51.704Z,9.38
2022-11-20T02:50:18.582Z,9.13
2022-11-20T02:52:45.018Z,13.77
2022-11-20T02:55:11.514Z,12.43
2022-11-20T02:57:38.108Z,11.25
2022-11-20T03:00:05.801Z,8.40
2022-11-20T03:02:32.542Z,10.48
2022-11-20T03:04:59.173Z,12.30
2022-11-20T03:07:26.653Z,10.77
2022-11-20T03:09:53.218Z,8.48
2022-11-20T03:12:19.685Z,14.07
2022-11-20T03:14:51.566Z,12.82
2022-11-20T03:17:19.384Z,12.98
2022-11-20T03:19:45.928Z,13.68
2022-11-20T03:22:12.419Z,10.32
2022-11-20T03:24:38.873Z,12.27
2022-11-20T03:27:05.348Z,11.23
2022-11-20T03:29:31.827Z,10.60
2022-11-20T03:31:58.260Z,10.73
2022-11-20T03:34:24.812Z,10.10
2022-11-20T03:36:51.345Z,9.60
2022-11-20T03:39:17.824Z,9.15
2022-11-20T03:41:44.414Z,7.68
2022-11-20T03:44:12.489Z,9.30
2022-11-20T03:46:39.339Z,9.13
2022-11-20T03:49:05.966Z,11.30
2022-11-20T03:51:34.062Z,10.43
2022-11-20T03:54:03.677Z,9.63
2022-11-20T03:56:32.662Z,10.25
2022-11-20T03:58:59.533Z,9.05
2022-11-20T04:01:34.269Z,8.15
2022-11-20T04:04:01.030Z,8.45
2022-11-20T04:06:30.662Z,9.43
2022-11-20T04:08:58.837Z,9.93
2022-11-20T04:11:27.868Z,8.90
2022-11-20T04:14:00.003Z,9.45
2022-11-20T04:16:27.650Z,9.02
2022-11-20T04:18:55.617Z,14.93
2022-11-20T04:21:22.367Z,9.98
2022-11-20T04:23:49.687Z,9.75
2022-11-20T04:26:16.328Z,8.00
2022-11-20T04:28:42.772Z,8.73
2022-11-20T04:31:11.785Z,8.50
2022-11-20T04:33:39.430Z,9.65
2022-11-20T04:36:16.972Z,9.00
2022-11-20T04:38:44.022Z,9.40
2022-11-20T04:41:21.912Z,8.32
2022-11-20T04:43:53.484Z,9.40
2022-11-20T04:46:21.368Z,8.60
2022-11-20T04:48:48.573Z,8.82
2022-11-20T04:51:15.120Z,7.72
2022-11-20T04:53:41.708Z,9.65
2022-11-20T04:56:11.039Z,9.68
2022-11-20T04:58:38.135Z,8.32
2022-11-20T05:01:06.670Z,9.35
2022-11-20T05:03:35.505Z,10.27
2022-11-20T05:06:05.814Z,8.20
2022-11-20T05:08:33.223Z,12.00
2022-11-20T05:11:11.743Z,8.10
2022-11-20T05:13:38.809Z,9.60
2022-11-20T05:16:12.243Z,8.02
2022-11-20T05:18:39.876Z,8.93
2022-11-20T05:21:07.072Z,10.60
2022-11-20T05:23:34.354Z,9.25
2022-11-20T05:26:01.912Z,8.68
2022-11-20T05:28:30.363Z,9.00
2022-11-20T05:30:57.277Z,8.88
2022-11-20T05:33:23.899Z,9.27
2022-11-20T05:35:50.407Z,8.02
2022-11-20T05:38:17.155Z,8.57
2022-11-20T05:40:43.759Z,9.18
2022-11-20T05:43:10.198Z,8.50
2022-11-20T05:45:36.714Z,8.20
2022-11-20T05:48:03.331Z,9.80
2022-11-20T05:50:29.903Z,8.65
2022-11-20T05:52:59.511Z,7.05
2022-11-20T05:55:26.482Z,9.60
2022-11-20T05:57:56.239Z,9.48
2022-11-20T06:00:23.103Z,10.02
2022-11-20T06:02:49.664Z,10.65
2022-11-20T06:05:16.315Z,9.75
2022-11-20T06:07:42.836Z,10.13
2022-11-20T06:10:09.815Z,10.52
2022-11-20T06:12:36.261Z,11.10
2022-11-20T06:15:02.721Z,9.68
2022-11-20T06:17:29.145Z,9.30
2022-11-20T06:19:55.604Z,8.50
2022-11-20T06:22:22.943Z,7.93
2022-11-20T06:24:49.411Z,8.45
2022-11-20T06:27:16.807Z,7.43
2022-11-20T06:29:43.333Z,7.68
2022-11-20T06:32:09.861Z,11.45
2022-11-20T06:34:36.308Z,9.63
2022-11-20T06:37:02.792Z,8.50
2022-11-20T06:39:32.268Z,7.78
2022-11-20T06:41:59.407Z,7.93
2022-11-20T06:44:26.644Z,11.57
2022-11-20T06:46:53.116Z,13.65
2022-11-20T06:49:19.791Z,9.75
2022-11-20T06:51:46.466Z,8.73
2022-11-20T06:54:12.897Z,7.90
2022-11-20T06:56:39.327Z,7.43
2022-11-20T06:59:07.398Z,7.28
2022-11-20T07:01:33.977Z,8.40
2022-11-20T07:04:00.436Z,11.85
2022-11-20T07:06:26.892Z,10.43
2022-11-20T07:08:53.639Z,11.32
2022-11-20T07:11:20.138Z,9.80
2022-11-20T07:13:46.718Z,12.55
2022-11-20T07:16:13.217Z,9.25
2022-11-20T07:18:43.659Z,10.88
2022-11-20T07:21:12.528Z,9.75
2022-11-20T07:23:38.979Z,8.80
2022-11-20T07:26:10.975Z,11.45
2022-11-20T07:28:38.397Z,9.65
2022-11-20T07:31:06.008Z,10.60
2022-11-20T07:33:32.659Z,13.40
2022-11-20T07:36:02.889Z,15.05
2022-11-20T07:38:29.829Z,16.08
2022-11-20T07:40:59.374Z,11.23
2022-11-20T07:43:26.326Z,9.70
2022-11-20T07:45:52.992Z,11.10
2022-11-20T07:48:19.494Z,10.15
2022-11-20T07:50:46.030Z,12.23
2022-11-20T07:53:13.681Z,9.30
2022-11-20T07:55:40.339Z,14.15
2022-11-20T07:58:06.774Z,10.93
2022-11-20T08:00:33.266Z,9.75
2022-11-20T08:02:59.728Z,9.57
2022-11-20T08:05:26.205Z,8.77
2022-11-20T08:07:52.726Z,8.35
2022-11-20T08:10:19.438Z,16.88
2022-11-20T08:13:06.160Z,9.82
2022-11-20T08:15:32.892Z,9.10
2022-11-20T08:18:29.912Z,8.82
2022-11-20T08:20:54.330Z,9.02
2022-11-20T08:23:20.784Z,8.55
2022-11-20T08:25:50.825Z,14.25
2022-11-20T08:28:21.342Z,10.50
2022-11-20T08:30:49.094Z,11.52
2022-11-20T08:33:15.556Z,9.80
2022-11-20T08:35:42.689Z,10.85
2022-11-20T08:38:10.061Z,10.55
2022-11-20T08:40:36.626Z,8.43
2022-11-20T08:43:03.140Z,8.38
2022-11-20T08:45:34.149Z,8.55
2022-11-20T08:48:03.226Z,9.18
2022-11-20T08:50:30.215Z,8.55
2022-11-20T08:52:56.719Z,8.80
2022-11-20T08:55:23.180Z,11.13
2022-11-20T08:57:51.070Z,9.77
2022-11-20T09:00:18.460Z,8.95
2022-11-20T09:02:44.903Z,9.05
2022-11-20T09:05:11.390Z,10.95
2022-11-20T09:07:37.928Z,10.82
2022-11-20T09:10:23.246Z,11.80
2022-11-20T09:12:51.576Z,16.52
2022-11-20T09:15:18.700Z,11.65
2022-11-20T09:17:56.117Z,11.35
2022-11-20T09:20:22.748Z,10.55
2022-11-20T09:22:49.269Z,16.00
2022-11-20T09:25:15.754Z,16.98
2022-11-20T09:27:44.674Z,12.48
2022-11-20T09:30:11.808Z,10.88
2022-11-20T09:32:40.488Z,13.82
2022-11-20T09:35:07.513Z,18.60
2022-11-20T09:37:34.054Z,18.02
2022-11-20T09:40:00.719Z,12.10
2022-11-20T09:42:48.937Z,20.15
2022-11-20T09:45:45.899Z,18.42
2022-11-20T09:48:26.124Z,20.35
2022-11-20T09:51:27.105Z,19.05
2022-11-20T09:54:08.226Z,19.23
2022-11-20T09:56:40.977Z,21.10
2022-11-20T09:59:15.361Z,14.32
2022-11-20T10:01:44.152Z,17.83
2022-11-20T10:04:22.070Z,15.93
2022-11-20T10:07:30.215Z,14.10
2022-11-20T10:10:17.959Z,11.93
2022-11-20T10:13:05.747Z,13.93
2022-11-20T10:15:42.361Z,12.52
2022-11-20T10:18:32.984Z,13.30
2022-11-20T10:21:27.011Z,16.30
2022-11-20T10:24:25.729Z,14.40
2022-11-20T10:27:17.081Z,14.50
2022-11-20T10:29:48.713Z,14.95
2022-11-20T10:32:18.216Z,15.93
2022-11-20T10:34:54.151Z,15.38
2022-11-20T10:37:27.499Z,14.55
2022-11-20T10:39:57.303Z,15.15
2022-11-20T10:42:41.181Z,12.90
2022-11-20T10:45:23.624Z,10.85
2022-11-20T10:47:50.174Z,9.77
2022-11-20T10:50:22.452Z,15.95
2022-11-20T10:53:17.160Z,11.32
2022-11-20T10:55:51.592Z,12.63
2022-11-20T10:58:31.361Z,10.10
2022-11-20T11:01:24.169Z,10.85
2022-11-20T11:03:55.644Z,9.70
2022-11-20T11:06:43.947Z,12.93
2022-11-20T11:09:17.295Z,13.88
2022-11-20T11:11:44.045Z,14.88
2022-11-20T11:14:15.668Z,14.05
2022-11-20T11:17:02.371Z,12.65
2022-11-20T11:19:28.878Z,10.15
2022-11-20T11:21:57.662Z,12.60
2022-11-20T11:24:46.497Z,14.73
2022-11-20T11:27:18.512Z,10.13
2022-11-20T11:29:48.646Z,12.35
2022-11-20T11:32:22.751Z,12.75
2022-11-20T11:35:07.579Z,13.82
2022-11-20T11:37:36.900Z,13.13
2022-11-20T11:42:59.815Z,13.50
2022-11-20T11:45:26.782Z,13.88
2022-11-20T11:47:57.561Z,12.45
2022-11-20T11:50:29.483Z,13.77
2022-11-20T11:53:10.431Z,13.75
2022-11-20T11:55:48.758Z,12.93
2022-11-20T11:58:29.710Z,13.88
2022-11-20T12:01:08.382Z,14.05
2022-11-20T12:03:42.504Z,13.57
2022-11-20T12:06:17.338Z,15.60
2022-11-20T12:08:59.897Z,14.95
2022-11-20T12:11:39.871Z,16.52
2022-11-20T12:14:24.848Z,15.35
2022-11-20T12:16:53.752Z,16.35
2022-11-20T12:19:20.681Z,16.90
2022-11-20T12:22:14.378Z,14.82
2022-11-20T12:24:48.282Z,12.88
2022-11-20T12:27:14.734Z,17.13
2022-11-20T12:30:03.810Z,15.70
2022-11-20T12:33:14.378Z,14.20
2022-11-20T12:35:53.107Z,15.52
2022-11-20T12:38:49.274Z,13.43
2022-11-20T12:41:35.645Z,21.10
2022-11-20T12:44:40.630Z,17.67
2022-11-20T12:47:25.231Z,16.33
2022-11-20T12:50:10.441Z,14.48
2022-11-20T12:52:42.993Z,16.13
2022-11-20T12:55:21.648Z,18.52
2022-11-20T12:57:58.296Z,15.05
2022-11-20T13:00:26.214Z,16.77
2022-11-20T13:03:17.782Z,14.35
2022-11-20T13:06:15.824Z,22.27
2022-11-20T13:08:49.457Z,15.63
2022-11-20T13:11:38.943Z,14.38
2022-11-20T13:14:36.149Z,18.15
2022-11-20T13:17:07.309Z,16.17
2022-11-20T13:19:34.781Z,16.23
2022-11-20T13:22:01.646Z,14.68
2022-11-20T13:24:31.239Z,16.98
2022-11-20T13:27:01.911Z,17.30
2022-11-20T13:29:28.719Z,15.55
2022-11-20T13:32:07.949Z,15.45
2022-11-20T13:34:36.902Z,15.88
2022-11-20T13:37:04.828Z,19.13
2022-11-20T13:39:36.105Z,16.90
2022-11-20T13:42:15.362Z,16.05
2022-11-20T13:45:02.923Z,20.33
2022-11-20T13:47:30.208Z,18.92
2022-11-20T13:49:59.699Z,15.82
2022-11-20T13:52:28.771Z,18.30
2022-11-20T13:55:14.063Z,23.48
2022-11-20T13:57:53.678Z,19.13
2022-11-20T14:00:23.014Z,21.77
2022-11-20T14:03:15.722Z,17.13
2022-11-20T14:06:01.669Z,17.83
2022-11-20T14:08:41.028Z,15.50
2022-11-20T14:11:20.888Z,18.67
2022-11-20T14:13:56.528Z,14.50
2022-11-20T14:16:24.297Z,16.83
2022-11-20T14:18:50.879Z,16.58
2022-11-20T14:21:25.497Z,19.00
2022-11-20T14:24:04.734Z,15.68
2022-11-20T14:26:31.999Z,17.92
2022-11-20T14:28:58.704Z,14.15
2022-11-20T14:31:27.555Z,15.25
2022-11-20T14:33:55.465Z,15.80
2022-11-20T14:36:25.503Z,15.63
2022-11-20T14:38:53.709Z,17.65
2022-11-20T14:41:22.900Z,17.10
2022-11-20T14:43:57.689Z,18.40
2022-11-20T14:46:25.244Z,19.35
2022-11-20T14:48:54.913Z,16.83
2022-11-20T14:51:27.046Z,18.85
2022-11-20T14:53:53.507Z,15.75
2022-11-20T14:56:25.132Z,20.70
2022-11-20T14:58:58.931Z,19.90
2022-11-20T15:01:33.066Z,19.92
2022-11-20T15:04:06.569Z,17.85
2022-11-20T15:06:33.591Z,15.27
2022-11-20T15:09:00.248Z,16.60
2022-11-20T15:11:36.162Z,18.88
2022-11-20T15:14:06.828Z,17.40
2022-11-20T15:16:33.796Z,15.35
2022-11-20T15:19:01.425Z,20.55
2022-11-20T15:21:28.001Z,12.95
2022-11-20T15:23:54.738Z,14.73
2022-11-20T15:26:25.798Z,17.17
2022-11-20T15:28:53.097Z,13.65
2022-11-20T15:31:22.502Z,16.85
2022-11-20T15:33:50.026Z,15.63
2022-11-20T15:36:16.608Z,14.20
2022-11-20T15:38:43.104Z,15.40
2022-11-20T15:41:09.877Z,12.23
2022-11-20T15:43:36.468Z,13.27
2022-11-20T15:46:10.168Z,11.65
2022-11-20T15:48:46.231Z,10.52
2022-11-20T15:51:32.774Z,16.15
2022-11-20T15:53:59.408Z,12.90
2022-11-20T15:56:26.847Z,11.70
2022-11-20T15:58:53.365Z,15.75
2022-11-20T16:01:23.027Z,11.50
2022-11-20T16:03:49.951Z,11.15
2022-11-20T16:06:17.285Z,10.52
2022-11-20T16:08:44.615Z,11.13
2022-11-20T16:11:16.133Z,11.02
2022-11-20T16:14:01.860Z,10.70
2022-11-20T16:16:32.273Z,8.57
2022-11-20T16:18:59.402Z,12.75
2022-11-20T16:21:32.353Z,14.57
2022-11-20T16:24:04.750Z,17.33
2022-11-20T16:26:31.742Z,11.07
2022-11-20T16:29:00.366Z,12.93
2022-11-20T16:31:27.174Z,9.35
2022-11-20T16:33:55.612Z,10.15
2022-11-20T16:36:24.084Z,8.00
2022-11-20T16:38:54.645Z,28.38
2022-11-20T16:41:21.498Z,5.63
2022-11-20T16:43:50.050Z,7.10
2022-11-20T16:46:18.830Z,6.95
2022-11-20T16:48:45.863Z,5.10
2022-11-20T16:51:13.227Z,9.60
2022-11-20T16:53:40.663Z,8.35
2022-11-20T16:56:13.415Z,5.97
2022-11-20T16:58:39.871Z,5.85
2022-11-20T17:01:10.915Z,5.60
2022-11-20T17:03:38.543Z,7.03
2022-11-20T17:06:17.126Z,4.43
2022-11-20T17:08:44.671Z,4.18
2022-11-20T17:11:13.685Z,6.03
2022-11-20T17:13:40.841Z,7.32
2022-11-20T17:16:10.208Z,5.90
2022-11-20T17:18:37.220Z,3.30
2022-11-20T17:21:05.529Z,3.78
2022-11-20T17:23:36.151Z,4.05
2022-11-20T17:26:08.270Z,9.05
2022-11-20T17:28:35.351Z,2.80
2022-11-20T17:31:21.082Z,2.53
2022-11-20T17:33:47.974Z,2.70
2022-11-20T17:36:16.528Z,3.40
2022-11-20T17:38:43.458Z,3.00
2022-11-20T17:41:11.489Z,4.10
2022-11-20T17:43:38.361Z,4.22
2022-11-20T17:46:21.328Z,3.38
2022-11-20T17:48:49.468Z,5.35
2022-11-20T17:51:24.605Z,3.95
2022-11-20T17:53:54.655Z,2.85
2022-11-20T17:56:39.775Z,3.35
2022-11-20T17:59:13.516Z,3.60
2022-11-20T18:01:43.036Z,3.90
2022-11-20T18:04:10.518Z,3.95
2022-11-20T18:06:37.594Z,3.50
2022-11-20T18:09:05.222Z,3.88
2022-11-20T18:11:37.969Z,4.10
2022-11-20T18:14:25.896Z,4.50
2022-11-20T18:16:55.713Z,4.40
2022-11-20T18:19:27.672Z,4.63
2022-11-20T18:21:58.331Z,4.72
2022-11-20T18:24:25.079Z,4.30
2022-11-20T18:26:51.834Z,4.95
2022-11-20T18:29:18.467Z,4.95
2022-11-20T18:31:44.921Z,4.28
2022-11-20T18:34:14.101Z,5.30
2022-11-20T18:36:42.491Z,4.90
2022-11-20T18:39:11.964Z,5.38
2022-11-20T18:41:58.262Z,5.45
2022-11-20T18:44:46.927Z,4.88
2022-11-20T18:47:16.013Z,4.47
2022-11-20T18:49:55.079Z,4.50
2022-11-20T18:52:27.371Z,7.93
2022-11-20T18:54:54.685Z,4.82
2022-11-20T18:57:24.157Z,4.13
2022-11-20T18:59:51.213Z,4.55
2022-11-20T19:02:20.011Z,4.30
2022-11-20T19:04:46.867Z,4.10
2022-11-20T19:07:14.425Z,3.92
2022-11-20T19:09:42.305Z,4.05
2022-11-20T19:12:10.414Z,4.20
2022-11-20T19:14:36.934Z,5.13
2022-11-20T19:17:04.682Z,5.05
2022-11-20T19:19:31.252Z,4.75
2022-11-20T19:21:57.742Z,8.23
2022-11-20T19:24:24.423Z,4.07
2022-11-20T19:26:50.923Z,4.32
2022-11-20T19:29:18.975Z,4.03
2022-11-20T19:31:45.830Z,4.78
2022-11-20T19:34:12.378Z,4.03
2022-11-20T19:36:44.678Z,4.63
2022-11-20T19:39:12.071Z,6.30
2022-11-20T19:41:39.971Z,4.65
2022-11-20T19:44:09.669Z,4.95
2022-11-20T19:46:37.694Z,4.35
2022-11-20T19:49:06.690Z,4.30
2022-11-20T19:51:35.039Z,4.30
2022-11-20T19:54:02.045Z,3.95
2022-11-20T19:56:30.589Z,6.40
2022-11-20T19:58:59.302Z,4.05
2022-11-20T20:01:28.572Z,5.57
2022-11-20T20:03:56.630Z,4.95
2022-11-20T20:06:25.784Z,4.80
2022-11-20T20:09:12.411Z,4.60
2022-11-20T20:11:45.937Z,4.63
2022-11-20T20:14:14.663Z,4.93
2022-11-20T20:16:41.931Z,4.20
2022-11-20T20:19:13.338Z,4.00
2022-11-20T20:21:41.179Z,3.67
2022-11-20T20:24:07.939Z,3.47
2022-11-20T20:26:34.552Z,4.05
2022-11-20T20:29:01.813Z,3.90
2022-11-20T20:31:33.243Z,4.10
2022-11-20T20:34:00.411Z,3.47
2022-11-20T20:36:27.175Z,3.60
2022-11-20T20:38:55.036Z,3.47
2022-11-20T20:41:23.298Z,3.60
2022-11-20T20:44:08.271Z,3.25
2022-11-20T20:46:35.337Z,3.75
2022-11-20T20:49:01.827Z,6.03
2022-11-20T20:51:28.389Z,3.38
2022-11-20T20:53:54.947Z,3.00
2022-11-20T20:56:21.850Z,4.63
2022-11-20T20:58:48.425Z,4.13
2022-11-20T21:01:16.951Z,3.40
2022-11-20T21:03:43.760Z,3.20
2022-11-20T21:06:11.479Z,3.72
2022-11-20T21:08:40.683Z,3.00
2022-11-20T21:11:12.417Z,3.25
2022-11-20T21:13:40.461Z,3.15
2022-11-20T21:16:07.505Z,3.00
2022-11-20T21:18:34.997Z,5.38
2022-11-20T21:21:23.618Z,3.97
2022-11-20T21:23:51.360Z,2.97
2022-11-20T21:26:18.067Z,4.97
2022-11-20T21:28:44.549Z,3.63
2022-11-20T21:31:16.039Z,2.85
2022-11-20T21:33:44.694Z,5.03
2022-11-20T21:36:16.394Z,3.30
2022-11-20T21:38:43.495Z,3.15
2022-11-20T21:41:11.989Z,3.97
2022-11-20T21:43:38.600Z,3.70
2022-11-20T21:46:13.256Z,3.38
2022-11-20T21:48:41.618Z,3.25
2022-11-20T21:51:11.494Z,3.30
2022-11-20T21:53:38.607Z,3.65
2022-11-20T21:56:06.424Z,3.65
2022-11-20T21:58:34.821Z,3.72
2022-11-20T22:01:17.787Z,4.90
2022-11-20T22:03:49.288Z,3.60
2022-11-20T22:06:16.166Z,3.58
2022-11-20T22:08:42.807Z,4.80
2022-11-20T22:11:13.906Z,4.28
2022-11-20T22:13:59.419Z,4.32
2022-11-20T22:16:26.346Z,3.78
2022-11-20T22:18:54.796Z,3.65
2022-11-20T22:21:26.045Z,4.40
2022-11-20T22:23:52.572Z,3.95
2022-11-20T22:26:22.550Z,3.45
2022-11-20T22:28:50.651Z,3.70
2022-11-20T22:31:19.038Z,3.58
2022-11-20T22:33:45.660Z,4.15
2022-11-20T22:36:15.250Z,3.70
2022-11-20T22:38:42.020Z,3.70
2022-11-20T22:41:14.696Z,3.65
2022-11-20T22:43:42.762Z,3.33
2022-11-20T22:46:11.888Z,3.50
2022-11-20T22:48:41.515Z,4.18
2022-11-20T22:51:10.660Z,3.40
2022-11-20T22:53:37.459Z,4.30
2022-11-20T22:56:06.840Z,3.45
2022-11-20T22:58:34.951Z,3.50
2022-11-20T23:01:15.954Z,4.25
2022-11-20T23:03:44.428Z,3.97
2022-11-20T23:06:12.277Z,4.28
2022-11-20T23:08:40.303Z,5.35
2022-11-20T23:11:21.096Z,3.65
2022-11-20T23:13:47.971Z,4.00
2022-11-20T23:16:19.914Z,3.95
2022-11-20T23:18:46.678Z,3.95
2022-11-20T23:21:15.711Z,4.00
2022-11-20T23:23:42.885Z,3.60
2022-11-20T23:26:11.872Z,4.05
2022-11-20T23:28:39.034Z,3.72
2022-11-20T23:31:06.330Z,3.85
2022-11-20T23:33:36.184Z,3.63
2022-11-20T23:36:03.261Z,3.65
2022-11-20T23:38:29.758Z,3.55
2022-11-20T23:40:56.163Z,3.53
2022-11-20T23:43:23.035Z,4.05
2022-11-20T23:45:54.351Z,3.70
2022-11-20T23:48:23.480Z,3.83
2022-11-20T23:50:50.351Z,3.70
2022-11-20T23:53:17.423Z,4.00
2022-11-20T23:55:45.211Z,2.83
2022-11-20T23:58:12.123Z,3.53
